createdAt,value
2022-12-27T00:00:14.234Z,100242.59
2022-12-27T00:02:42.155Z,100241.50
2022-12-27T00:05:10.247Z,100241.50
2022-12-27T00:07:37.351Z,100244.81
2022-12-27T00:10:05.645Z,100240.50
2022-12-27T00:12:32.617Z,100232.94
2022-12-27T00:14:59.335Z,100238.84
2022-12-27T00:17:26.593Z,100244.03
2022-12-27T00:19:53.353Z,100234.84
2022-12-27T00:22:20.144Z,100234.16
2022-12-27T00:24:47.824Z,100229.88
2022-12-27T00:27:14.685Z,100238.22
2022-12-27T00:29:41.446Z,100241.72
2022-12-27T00:32:08.314Z,100239.97
2022-12-27T00:34:35.287Z,100236.91
2022-12-27T00:37:02.045Z,100232.84
2022-12-27T00:39:28.878Z,100220.25
2022-12-27T00:41:55.624Z,100228.56
2022-12-27T00:44:22.409Z,100212.13
2022-12-27T00:46:49.174Z,100201.47
2022-12-27T00:49:15.951Z,100197.22
2022-12-27T00:51:42.692Z,100192.94
2022-12-27T00:54:09.496Z,100184.59
2022-12-27T00:56:36.339Z,100175.50
2022-12-27T00:59:04.997Z,100172.97
2022-12-27T01:01:35.961Z,100177.25
2022-12-27T01:04:03.693Z,100162.75
2022-12-27T01:06:32.871Z,100161.34
2022-12-27T01:09:01.396Z,100163.00
2022-12-27T01:11:29.162Z,100154.00
2022-12-27T01:14:01.224Z,100153.44
2022-12-27T01:16:30.258Z,100145.22
2022-12-27T01:18:57.263Z,100146.09
2022-12-27T01:21:25.200Z,100141.25
2022-12-27T01:23:52.458Z,100138.75
2022-12-27T01:26:21.077Z,100139.16
2022-12-27T01:28:48.635Z,100128.31
2022-12-27T01:31:18.636Z,100126.75
2022-12-27T01:33:45.918Z,100122.69
2022-12-27T01:36:20.053Z,100114.66
2022-12-27T01:38:50.546Z,100122.56
2022-12-27T01:41:42.263Z,100115.19
2022-12-27T01:44:52.262Z,100113.97
2022-12-27T01:47:46.954Z,100099.69
2022-12-27T01:50:31.737Z,100103.00
2022-12-27T01:53:18.929Z,100105.50
2022-12-27T01:55:54.686Z,100097.94
2022-12-27T01:58:54.916Z,100104.19
2022-12-27T02:01:26.813Z,100091.34
2022-12-27T02:04:02.452Z,100090.47
2022-12-27T02:06:31.254Z,100086.75
2022-12-27T02:09:16.616Z,100094.63
2022-12-27T02:11:55.210Z,100088.72
2022-12-27T02:14:35.613Z,100076.41
2022-12-27T02:17:06.666Z,100079.69
2022-12-27T02:19:42.512Z,100071.66
2022-12-27T02:22:27.501Z,100075.06
2022-12-27T02:25:28.138Z,100070.91
2022-12-27T02:28:15.042Z,100072.63
2022-12-27T02:30:46.251Z,100077.38
2022-12-27T02:33:21.679Z,100077.50
2022-12-27T02:35:59.530Z,100073.53
2022-12-27T02:38:37.623Z,100072.94
2022-12-27T02:41:26.750Z,100068.66
2022-12-27T02:44:13.999Z,100059.25
2022-12-27T02:46:59.172Z,100068.66
2022-12-27T02:49:53.478Z,100057.22
2022-12-27T02:53:03.688Z,100048.31
2022-12-27T02:56:08.981Z,100036.03
2022-12-27T02:59:04.935Z,100030.63
2022-12-27T03:01:52.975Z,100033.72
2022-12-27T03:04:44.443Z,100032.94
2022-12-27T03:07:20.045Z,100023.41
2022-12-27T03:10:12.951Z,100019.91
2022-12-27T03:13:13.151Z,100004.97
2022-12-27T03:15:56.496Z,100010.22
2022-12-27T03:18:32.412Z,100005.16
2022-12-27T03:21:19.595Z,100007.28
2022-12-27T03:24:07.991Z,99997.94
2022-12-27T03:26:37.772Z,99994.78
2022-12-27T03:29:25.205Z,99994.88
2022-12-27T03:32:15.224Z,99992.53
2022-12-27T03:34:49.540Z,99991.56
2022-12-27T03:37:41.478Z,99982.34
2022-12-27T03:40:13.213Z,99977.19
2022-12-27T03:43:08.621Z,99973.50
2022-12-27T03:46:16.284Z,99969.25
2022-12-27T03:49:38.679Z,99963.41
2022-12-27T03:52:08.032Z,99967.69
2022-12-27T03:54:39.428Z,99961.09
2022-12-27T03:57:10.324Z,99963.59
2022-12-27T03:59:37.494Z,99963.03
2022-12-27T04:02:05.049Z,99951.84
2022-12-27T04:04:31.983Z,99958.63
2022-12-27T04:06:58.830Z,99953.56
2022-12-27T04:09:44.355Z,99944.38
2022-12-27T04:12:30.121Z,99943.31
2022-12-27T04:15:15.191Z,99944.16
2022-12-27T04:18:00.894Z,99930.34
2022-12-27T04:20:46.068Z,99921.44
2022-12-27T04:23:31.311Z,99920.44
2022-12-27T04:26:16.616Z,99911.03
2022-12-27T04:29:01.739Z,99911.78
2022-12-27T04:31:46.843Z,99903.13
2022-12-27T04:34:32.147Z,99895.56
2022-12-27T04:36:58.950Z,99895.78
2022-12-27T04:39:25.667Z,99888.78
2022-12-27T04:42:10.942Z,99890.63
2022-12-27T04:44:56.169Z,99881.03
2022-12-27T04:47:42.131Z,99871.31
2022-12-27T04:50:47.996Z,99874.16
2022-12-27T04:53:39.322Z,99874.81
2022-12-27T04:56:06.812Z,99864.50
2022-12-27T04:58:33.675Z,99853.66
2022-12-27T05:01:22.406Z,99853.06
2022-12-27T05:03:51.986Z,99845.88
2022-12-27T05:06:19.258Z,99849.47
2022-12-27T05:09:04.788Z,99858.28
2022-12-27T05:11:49.999Z,99844.69
2022-12-27T05:14:16.819Z,99857.31
2022-12-27T05:16:44.744Z,99853.25
2022-12-27T05:19:13.463Z,99855.75
2022-12-27T05:22:05.074Z,99844.09
2022-12-27T05:24:51.593Z,99850.13
2022-12-27T05:27:18.397Z,99835.19
2022-12-27T05:29:45.992Z,99825.09
2022-12-27T05:32:13.833Z,99825.88
2022-12-27T05:34:41.136Z,99825.69
2022-12-27T05:37:08.428Z,99821.41
2022-12-27T05:39:35.131Z,99821.41
2022-12-27T05:42:02.123Z,99828.19
2022-12-27T05:44:29.038Z,99822.34
2022-12-27T05:46:56.244Z,99824.72
2022-12-27T05:49:23.263Z,99807.53
2022-12-27T05:51:50.037Z,99809.16
2022-12-27T05:54:16.891Z,99797.50
2022-12-27T05:56:43.658Z,99795.78
2022-12-27T05:59:10.426Z,99809.16
2022-12-27T06:01:37.276Z,99804.69
2022-12-27T06:04:04.147Z,99802.19
2022-12-27T06:06:30.944Z,99805.56
2022-12-27T06:08:57.728Z,99807.97
2022-12-27T06:11:24.565Z,99813.81
2022-12-27T06:13:53.610Z,99811.59
2022-12-27T06:16:22.355Z,99805.88
2022-12-27T06:18:49.461Z,99805.88
2022-12-27T06:21:21.301Z,99801.03
2022-12-27T06:23:48.883Z,99803.34
2022-12-27T06:26:21.751Z,99808.00
2022-12-27T06:28:49.825Z,99797.91
2022-12-27T06:31:20.348Z,99782.78
2022-12-27T06:33:51.415Z,99793.72
2022-12-27T06:36:23.729Z,99800.44
2022-12-27T06:38:50.750Z,99784.31
2022-12-27T06:41:19.161Z,99794.78
2022-12-27T06:43:46.765Z,99798.13
2022-12-27T06:46:17.825Z,99784.69
2022-12-27T06:48:45.781Z,99768.00
2022-12-27T06:51:14.283Z,99773.25
2022-12-27T06:53:41.055Z,99764.72
2022-12-27T06:56:16.679Z,99763.34
2022-12-27T06:58:43.608Z,99749.94
2022-12-27T07:01:16.310Z,99738.47
2022-12-27T07:03:43.422Z,99742.47
2022-12-27T07:06:11.812Z,99751.28
2022-12-27T07:08:38.639Z,99753.81
2022-12-27T07:11:10.911Z,99753.25
2022-12-27T07:13:41.080Z,99754.00
2022-12-27T07:16:09.509Z,99742.19
2022-12-27T07:18:37.298Z,99737.91
2022-12-27T07:21:09.130Z,99733.06
2022-12-27T07:23:36.786Z,99731.50
2022-12-27T07:26:05.308Z,99709.94
2022-12-27T07:28:32.582Z,99711.09
2022-12-27T07:30:59.746Z,99713.78
2022-12-27T07:33:26.752Z,99710.28
2022-12-27T07:36:01.350Z,99717.25
2022-12-27T07:38:28.345Z,99701.94
2022-12-27T07:40:58.147Z,99700.38
2022-12-27T07:43:24.888Z,99705.63
2022-12-27T07:45:51.674Z,99702.31
2022-12-27T07:48:18.714Z,99699.00
2022-12-27T07:50:54.605Z,99698.59
2022-12-27T07:53:21.569Z,99686.06
2022-12-27T07:55:48.822Z,99694.72
2022-12-27T07:58:15.614Z,99687.19
2022-12-27T08:00:42.514Z,99686.34
2022-12-27T08:03:09.344Z,99685.47
2022-12-27T08:05:36.124Z,99680.41
2022-12-27T08:08:05.232Z,99667.69
2022-12-27T08:10:33.972Z,99666.81
2022-12-27T08:13:00.689Z,99662.81
2022-12-27T08:15:27.448Z,99657.78
2022-12-27T08:17:54.194Z,99649.41
2022-12-27T08:20:20.987Z,99647.06
2022-12-27T08:22:47.750Z,99640.34
2022-12-27T08:25:14.484Z,99637.81
2022-12-27T08:27:41.219Z,99630.09
2022-12-27T08:30:08.706Z,99615.78
2022-12-27T08:32:35.492Z,99622.94
2022-12-27T08:35:25.027Z,99619.47
2022-12-27T08:37:48.946Z,99621.19
2022-12-27T08:40:15.713Z,99614.56
2022-12-27T08:42:42.401Z,99617.56
2022-12-27T08:45:09.677Z,99621.19
2022-12-27T08:47:37.610Z,99607.94
2022-12-27T08:50:05.195Z,99613.84
2022-12-27T08:52:32.513Z,99598.50
2022-12-27T08:54:59.223Z,99586.94
2022-12-27T08:57:25.953Z,99582.84
2022-12-27T08:59:52.755Z,99580.38
2022-12-27T09:02:19.682Z,99575.34
2022-12-27T09:04:47.333Z,99574.66
2022-12-27T09:07:14.257Z,99572.03
2022-12-27T09:09:40.982Z,99563.69
2022-12-27T09:12:09.441Z,99567.31
2022-12-27T09:14:36.315Z,99567.31
2022-12-27T09:17:03.129Z,99554.09
2022-12-27T09:19:29.852Z,99560.00
2022-12-27T09:21:56.538Z,99553.19
2022-12-27T09:24:23.341Z,99559.16
2022-12-27T09:26:50.139Z,99554.84
2022-12-27T09:29:17.144Z,99548.84
2022-12-27T09:31:43.929Z,99544.56
2022-12-27T09:34:11.453Z,99543.97
2022-12-27T09:36:39.534Z,99540.81
2022-12-27T09:39:06.658Z,99537.53
2022-12-27T09:44:56.783Z,99542.91
2022-12-27T09:47:47.997Z,99531.22
2022-12-27T09:50:38.043Z,99534.69
2022-12-27T09:53:18.830Z,99532.78
2022-12-27T09:55:53.085Z,99525.03
2022-12-27T09:58:34.986Z,99520.59
2022-12-27T10:01:02.712Z,99517.94
2022-12-27T10:03:30.682Z,99516.22
2022-12-27T10:06:22.942Z,99515.13
2022-12-27T10:08:58.485Z,99504.25
2022-12-27T10:12:03.740Z,99501.09
2022-12-27T10:14:59.810Z,99502.22
2022-12-27T10:17:38.922Z,99500.72
2022-12-27T10:20:15.706Z,99501.56
2022-12-27T10:22:45.195Z,99496.59
2022-12-27T10:25:14.317Z,99500.81
2022-12-27T10:27:42.220Z,99489.78
2022-12-27T10:30:20.590Z,99485.94
2022-12-27T10:32:47.975Z,99482.47
2022-12-27T10:35:17.447Z,99477.56
2022-12-27T10:37:45.398Z,99478.53
2022-12-27T10:40:21.044Z,99458.53
2022-12-27T10:43:11.074Z,99452.59
2022-12-27T10:45:42.821Z,99444.03
2022-12-27T10:48:17.050Z,99447.69
2022-12-27T10:50:50.796Z,99447.78
2022-12-27T10:53:43.018Z,99438.69
2022-12-27T10:56:28.418Z,99431.56
2022-12-27T10:59:17.349Z,99435.69
2022-12-27T11:01:46.266Z,99437.09
2022-12-27T11:04:21.524Z,99418.91
2022-12-27T11:07:12.554Z,99415.75
2022-12-27T11:09:50.268Z,99420.63
2022-12-27T11:12:26.134Z,99407.22
2022-12-27T11:15:02.516Z,99392.97
2022-12-27T11:17:42.323Z,99389.75
2022-12-27T11:20:12.404Z,99382.22
2022-12-27T11:22:57.926Z,99379.06
2022-12-27T11:25:26.942Z,99383.88
2022-12-27T11:27:59.549Z,99386.50
2022-12-27T11:30:31.739Z,99384.81
2022-12-27T11:33:04.113Z,99387.59
2022-12-27T11:35:33.923Z,99393.34
2022-12-27T11:38:00.818Z,99377.47
2022-12-27T11:40:34.549Z,99375.88
2022-12-27T11:43:09.475Z,99366.78
2022-12-27T11:45:43.439Z,99363.47
2022-12-27T11:48:31.126Z,99360.22
2022-12-27T11:51:20.166Z,99361.63
2022-12-27T11:54:24.216Z,99355.81
2022-12-27T11:56:59.871Z,99347.28
2022-12-27T12:00:17.531Z,99343.44
2022-12-27T12:03:27.484Z,99339.31
2022-12-27T12:06:00.032Z,99338.94
2022-12-27T12:09:07.630Z,99344.53
2022-12-27T12:12:03.592Z,99336.22
2022-12-27T12:15:07.742Z,99336.28
2022-12-27T12:18:01.940Z,99326.97
2022-12-27T12:21:00.147Z,99323.88
2022-12-27T12:23:47.143Z,99329.63
2022-12-27T12:26:18.100Z,99320.31
2022-12-27T12:29:11.159Z,99309.53
2022-12-27T12:32:06.916Z,99313.16
2022-12-27T12:35:07.088Z,99316.47
2022-12-27T12:37:45.563Z,99311.28
2022-12-27T12:40:40.124Z,99308.88
2022-12-27T12:43:55.587Z,99303.03
2022-12-27T12:46:42.438Z,99301.44
2022-12-27T12:49:28.181Z,99298.72
2022-12-27T12:52:19.549Z,99301.59
2022-12-27T12:55:14.262Z,99290.88
2022-12-27T12:57:59.868Z,99282.94
2022-12-27T13:00:51.089Z,99278.00
2022-12-27T13:03:17.915Z,99279.66
2022-12-27T13:06:07.594Z,99268.09
2022-12-27T13:08:54.728Z,99272.72
2022-12-27T13:11:46.586Z,99260.94
2022-12-27T13:14:16.208Z,99270.03
2022-12-27T13:17:08.214Z,99258.31
2022-12-27T13:19:47.241Z,99249.09
2022-12-27T13:22:30.252Z,99251.66
2022-12-27T13:25:27.855Z,99258.47
2022-12-27T13:28:15.931Z,99242.25
2022-12-27T13:31:08.684Z,99250.09
2022-12-27T13:34:12.672Z,99249.56
2022-12-27T13:36:42.012Z,99246.03
2022-12-27T13:39:36.618Z,99248.97
2022-12-27T13:42:15.396Z,99247.16
2022-12-27T13:44:57.924Z,99247.47
2022-12-27T13:48:01.738Z,99234.28
2022-12-27T13:50:52.370Z,99245.00
2022-12-27T13:53:52.615Z,99233.59
2022-12-27T13:56:53.928Z,99237.88
2022-12-27T14:00:01.230Z,99223.78
2022-12-27T14:02:46.304Z,99227.75
2022-12-27T14:05:37.714Z,99222.78
2022-12-27T14:08:19.036Z,99227.84
2022-12-27T14:10:55.303Z,99236.38
2022-12-27T14:13:36.517Z,99233.06
2022-12-27T14:16:36.956Z,99221.47
2022-12-27T14:19:25.223Z,99217.78
2022-12-27T14:22:10.662Z,99205.13
2022-12-27T14:25:11.723Z,99212.28
2022-12-27T14:28:17.040Z,99209.88
2022-12-27T14:31:14.955Z,99210.00
2022-12-27T14:34:19.453Z,99210.13
2022-12-27T14:37:23.519Z,99203.59
2022-12-27T14:40:18.171Z,99202.00
2022-12-27T14:43:22.968Z,99202.13
2022-12-27T14:46:30.293Z,99197.13
2022-12-27T14:49:35.706Z,99188.63
2022-12-27T14:52:14.403Z,99187.78
2022-12-27T14:55:18.132Z,99182.00
2022-12-27T14:58:17.347Z,99186.53
2022-12-27T15:01:08.476Z,99184.00
2022-12-27T15:04:00.197Z,99181.69
2022-12-27T15:07:15.638Z,99175.09
2022-12-27T15:09:55.363Z,99176.56
2022-12-27T15:12:27.930Z,99173.94
2022-12-27T15:14:55.221Z,99172.22
2022-12-27T15:17:39.752Z,99172.34
2022-12-27T15:20:12.928Z,99166.41
2022-12-27T15:22:51.653Z,99167.41
2022-12-27T15:25:28.711Z,99159.13
2022-12-27T15:28:14.193Z,99158.69
2022-12-27T15:30:59.658Z,99163.13
2022-12-27T15:33:34.074Z,99159.38
2022-12-27T15:36:07.711Z,99157.09
2022-12-27T15:39:01.134Z,99140.53
2022-12-27T15:41:56.019Z,99148.13
2022-12-27T15:44:40.308Z,99145.47
2022-12-27T15:47:15.071Z,99149.75
2022-12-27T15:50:07.776Z,99138.13
2022-12-27T15:52:46.918Z,99131.44
2022-12-27T15:55:35.553Z,99138.22
2022-12-27T15:58:24.057Z,99132.66
2022-12-27T16:01:29.173Z,99126.94
2022-12-27T16:03:58.486Z,99119.88
2022-12-27T16:06:34.607Z,99117.69
2022-12-27T16:09:28.268Z,99114.44
2022-12-27T16:12:07.307Z,99112.69
2022-12-27T16:14:41.075Z,99104.28
2022-12-27T16:17:23.168Z,99103.66
2022-12-27T16:20:14.352Z,99103.91
2022-12-27T16:23:02.703Z,99102.16
2022-12-27T16:25:41.209Z,99103.78
2022-12-27T16:28:24.695Z,99096.97
2022-12-27T16:30:54.119Z,99095.91
2022-12-27T16:33:26.801Z,99095.25
2022-12-27T16:36:02.773Z,99090.28
2022-12-27T16:38:30.948Z,99083.47
2022-12-27T16:41:24.826Z,99073.78
2022-12-27T16:44:00.569Z,99071.25
2022-12-27T16:46:30.036Z,99068.72
2022-12-27T16:49:18.391Z,99064.44
2022-12-27T16:52:07.241Z,99062.88
2022-12-27T16:55:00.058Z,99053.69
2022-12-27T16:57:26.736Z,99059.47
2022-12-27T17:00:02.042Z,99048.75
2022-12-27T17:02:37.321Z,99047.97
2022-12-27T17:05:14.549Z,99050.47
2022-12-27T17:08:08.405Z,99045.63
2022-12-27T17:10:44.664Z,99043.06
2022-12-27T17:13:39.133Z,99041.47
2022-12-27T17:16:07.667Z,99045.63
2022-12-27T17:18:58.052Z,99035.66
2022-12-27T17:21:39.482Z,99035.78
2022-12-27T17:24:15.298Z,99031.47
2022-12-27T17:27:10.164Z,99032.44
2022-12-27T17:29:42.942Z,99026.47
2022-12-27T17:32:19.644Z,99024.00
2022-12-27T17:35:01.221Z,99018.19
2022-12-27T17:37:37.890Z,99019.03
2022-12-27T17:40:32.516Z,99015.66
2022-12-27T17:43:39.703Z,99014.81
2022-12-27T17:46:30.850Z,99004.72
2022-12-27T17:48:58.263Z,98996.84
2022-12-27T17:51:28.455Z,98995.22
2022-12-27T17:54:14.860Z,98995.22
2022-12-27T17:57:04.321Z,98988.63
2022-12-27T17:59:33.007Z,98985.09
2022-12-27T18:02:06.972Z,98985.25
2022-12-27T18:04:47.100Z,98978.53
2022-12-27T18:07:15.469Z,98982.72
2022-12-27T18:09:53.885Z,98976.78
2022-12-27T18:12:24.513Z,98980.28
2022-12-27T18:15:19.376Z,98980.47
2022-12-27T18:18:01.580Z,98973.53
2022-12-27T18:20:29.742Z,98974.34
2022-12-27T18:23:02.551Z,98973.75
2022-12-27T18:25:44.653Z,98974.59
2022-12-27T18:28:11.189Z,98970.78
2022-12-27T18:30:43.175Z,98952.91
2022-12-27T18:33:16.413Z,98953.84
2022-12-27T18:35:47.991Z,98958.09
2022-12-27T18:38:30.084Z,98948.16
2022-12-27T18:41:07.266Z,98930.44
2022-12-27T18:43:35.632Z,98933.50
2022-12-27T18:46:04.259Z,98935.22
2022-12-27T18:48:35.557Z,98932.75
2022-12-27T18:51:03.151Z,98933.50
2022-12-27T18:53:38.772Z,98933.69
2022-12-27T18:56:15.788Z,98928.63
2022-12-27T18:59:06.119Z,98922.13
2022-12-27T19:01:44.094Z,98916.94
2022-12-27T19:04:17.261Z,98925.34
2022-12-27T19:07:09.578Z,98920.31
2022-12-27T19:09:39.365Z,98917.59
2022-12-27T19:12:29.803Z,98917.03
2022-12-27T19:14:57.293Z,98914.28
2022-12-27T19:17:29.784Z,98913.47
2022-12-27T19:20:02.960Z,98908.47
2022-12-27T19:22:31.599Z,98910.22
2022-12-27T19:25:00.335Z,98909.44
2022-12-27T19:27:27.111Z,98907.78
2022-12-27T19:29:53.900Z,98909.50
2022-12-27T19:32:40.643Z,98903.78
2022-12-27T19:35:08.639Z,98900.16
2022-12-27T19:37:35.760Z,98889.09
2022-12-27T19:40:02.988Z,98894.19
2022-12-27T19:42:34.841Z,98896.88
2022-12-27T19:45:01.854Z,98891.81
2022-12-27T19:47:28.924Z,98892.75
2022-12-27T19:49:55.723Z,98886.03
2022-12-27T19:52:26.058Z,98885.28
2022-12-27T19:55:04.679Z,98887.09
2022-12-27T19:57:31.457Z,98883.56
2022-12-27T19:59:58.286Z,98878.47
2022-12-27T20:02:25.409Z,98880.97
2022-12-27T20:04:52.488Z,98873.38
2022-12-27T20:07:25.466Z,98874.34
2022-12-27T20:09:52.402Z,98875.13
2022-12-27T20:12:19.224Z,98870.03
2022-12-27T20:14:47.392Z,98865.75
2022-12-27T20:17:14.497Z,98863.22
2022-12-27T20:19:41.380Z,98862.38
2022-12-27T20:22:10.938Z,98864.97
2022-12-27T20:24:37.998Z,98861.59
2022-12-27T20:27:05.728Z,98863.28
2022-12-27T20:29:32.605Z,98863.31
2022-12-27T20:31:59.573Z,98862.53
2022-12-27T20:34:26.471Z,98856.72
2022-12-27T20:36:55.447Z,98848.34
2022-12-27T20:39:22.299Z,98845.06
2022-12-27T20:41:49.108Z,98848.50
2022-12-27T20:44:16.005Z,98839.25
2022-12-27T20:46:42.809Z,98844.44
2022-12-27T20:49:09.512Z,98841.16
2022-12-27T20:51:37.254Z,98842.00
2022-12-27T20:54:04.328Z,98840.25
2022-12-27T20:56:31.260Z,98830.97
2022-12-27T20:58:58.075Z,98836.91
2022-12-27T21:01:26.058Z,98837.75
2022-12-27T21:03:55.990Z,98825.00
2022-12-27T21:06:28.428Z,98820.00
2022-12-27T21:08:57.687Z,98831.75
2022-12-27T21:11:33.721Z,98818.25
2022-12-27T21:14:02.506Z,98823.28
2022-12-27T21:16:31.511Z,98821.66
2022-12-27T21:19:02.755Z,98817.38
2022-12-27T21:21:29.578Z,98814.88
2022-12-27T21:23:58.188Z,98816.56
2022-12-27T21:26:27.846Z,98818.25
2022-12-27T21:28:55.518Z,98811.47
2022-12-27T21:31:22.873Z,98818.19
2022-12-27T21:33:49.764Z,98802.94
2022-12-27T21:36:20.396Z,98799.66
2022-12-27T21:38:47.733Z,98799.66
2022-12-27T21:41:20.410Z,98799.81
2022-12-27T21:43:49.190Z,98795.63
2022-12-27T21:46:19.970Z,98794.03
2022-12-27T21:48:47.600Z,98792.34
2022-12-27T21:51:18.654Z,98784.75
2022-12-27T21:53:45.806Z,98788.09
2022-12-27T21:56:15.456Z,98791.56
2022-12-27T21:58:43.050Z,98784.69
2022-12-27T22:01:24.778Z,98779.81
2022-12-27T22:03:53.463Z,98778.84
2022-12-27T22:06:26.174Z,98783.00
2022-12-27T22:08:59.547Z,98773.78
2022-12-27T22:11:28.061Z,98774.56
2022-12-27T22:13:55.421Z,98766.94
2022-12-27T22:16:24.911Z,98774.66
2022-12-27T22:18:52.196Z,98769.66
2022-12-27T22:21:21.368Z,98773.19
2022-12-27T22:23:50.417Z,98759.75
2022-12-27T22:26:22.912Z,98755.50
2022-12-27T22:28:49.904Z,98757.91
2022-12-27T22:31:22.292Z,98759.75
2022-12-27T22:33:50.029Z,98754.56
2022-12-27T22:36:22.470Z,98753.72
2022-12-27T22:38:53.638Z,98757.06
2022-12-27T22:41:31.979Z,98753.72
2022-12-27T22:44:04.774Z,98750.41
2022-12-27T22:46:58.756Z,98757.19
2022-12-27T22:49:19.253Z,98747.03
2022-12-27T22:51:45.994Z,98749.63
2022-12-27T22:54:12.723Z,98741.19
2022-12-27T22:56:41.962Z,98744.63
2022-12-27T22:59:13.605Z,98740.34
2022-12-27T23:01:41.520Z,98746.28
2022-12-27T23:04:11.122Z,98741.19
2022-12-27T23:06:39.689Z,98740.38
2022-12-27T23:09:06.630Z,98732.72
2022-12-27T23:11:36.520Z,98742.97
2022-12-27T23:14:06.640Z,98737.88
2022-12-27T23:16:37.671Z,98739.63
2022-12-27T23:19:04.922Z,98728.56
2022-12-27T23:21:31.925Z,98727.72
2022-12-27T23:23:58.678Z,98729.44
2022-12-27T23:26:25.481Z,98727.72
2022-12-27T23:28:53.047Z,98728.50
2022-12-27T23:31:22.287Z,98719.19
2022-12-27T23:33:49.676Z,98718.28
2022-12-27T23:36:16.745Z,98716.63
2022-12-27T23:38:44.331Z,98712.34
2022-12-27T23:41:19.242Z,98714.19
2022-12-27T23:43:55.383Z,98714.91
2022-12-27T23:46:26.623Z,98717.50
2022-12-27T23:48:54.064Z,98720.84
2022-12-27T23:51:21.875Z,98714.09
2022-12-27T23:53:49.093Z,98711.56
2022-12-27T23:56:18.735Z,98710.03
2022-12-27T23:58:46.797Z,98710.94
